Airfield :
LOGIN :

Register | Disclaimer

   EN    FR    IT 

 










Legend :    VFR   Marginal VFR   IFR   Intensive IFR   Very Intensive IFR
Visi :
Ceiling :
>= 8 km
>= 3000ft
5 to 8 km
1000 to 3000 ft
1500m to 5 km
500 to 1000 ft
800 to 1500m
200 to 500 ft
< 800m
< 200 ft
Symbols :   Thunderstorms  Fog  Heavy snow  Heavy precipitations  Wind > 20 kt
SIGMETs :     Misc.  Thunderstorms  Icing  Turbulence  Mountain Waves  Volcanic Ashes







- Airport Elevation : 1273 ft
- IATA code : LJU


LJLJ - Ljubljana

CURRENT METAR :
  • 151200Z VRB02KT 9999 FEW017 BKN030 10/06 Q1027 NOSIG

EXPIRED METARs :
  • 151130Z VRB02KT 9999 FEW013 BKN030 10/06 Q1027 NOSIG
  • 151100Z 14003KT 060V200 9999 FEW013 SCT020 BKN037 10/06 Q1028 NOSIG
  • 151030Z 17003KT 120V200 9999 FEW013 BKN020 10/05 Q1028 NOSIG
  • 151000Z 10004KT 080V140 9999 FEW015 BKN037 10/06 Q1028 NOSIG
  • 150930Z 15003KT 100V190 9999 FEW010 BKN037 10/06 Q1029 NOSIG

TAF TAF LJLJ
Valid from the 15 at 12:00 until the 16 at 12:00 UTC


151100Z 1512/1612 13005KT 9999 SCT020 BKN037
TEMPO 1513/1521 FEW020 SCT040
BECMG 1518/1520 VRB02KT
PROB30
TEMPO 1602/1606 0350 FG VV001
BECMG 1610/1612 12007KT
No reported NOTAMs for that airfield.



MET'MAP, your aeronautical weather chart ! - Copyright ORBIFLY December 2007 - Disclaimer

ORBIFLY MET'MAP TEAM :

Programming & Development : Alexandra Zaïnal
Concept & Development : Baudouin d'Aumeries
Co-Development & Prog : Marc-Olivier Méhu
Technical & hardware support : Manuel Goepfert

Contact : metmap@orbifly.com




SOURCES & CREDITS :

   NOAA